sim
Sign-in with your pilot id or email,
or register
Callsign
Passwort

Schedule Details

Flight Number: EWG9743
Departure: Geneva International Airport (LSGG) at 08:15
Arrival: Dusseldorf International Airport (EDDL) at 10:00
Route: Eurowings Passenger Schedule. Enter filed route here before submitting Pirep.

Weather Information
Getting current METAR information for LSGG 101920Z 24004KT 200V280 CAVOK 12/03 Q1013 NOSIG
Getting current METAR information for EDDL 101920Z 16006KT 9999 -RADZ FEW008 BKN022 10/09 Q1007 NOSIG

Schedule Frequency

Route Map